Time;durP1;ratioP1;P1;durP2;ratioP2;P2;SDS_P1;SDS_P2;PMS_P1;PMS_P2;Temp;Humidity;BMP_temperature;BMP_pressure;BME280_temperature;BME280_humidity;BME280_pressure;Samples;Min_cycle;Max_cycle;Signal;HPM_P1;HPM_P2
2022/06/27 00:00:39;;;;;;;;;;;;;;;;;;5039676;28;19964;-78
2022/06/27 00:03:05;;;;;;;;;;;;;;;;;;5039283;28;20015;-79
2022/06/27 00:05:39;;;;;;;;;;;;;;;;;;5039051;28;20019;-78
2022/06/27 00:08:06;;;;;;;;;;;;;;;;;;5038688;28;20377;-79
2022/06/27 00:10:32;;;;;;;;;;;;;;;;;;5038954;28;19993;-81
2022/06/27 00:12:59;;;;;;;;;;;;;;;;;;5038816;28;20004;-78
2022/06/27 00:15:27;;;;;;;;;;;;;;;;;;5038595;28;20020;-79
2022/06/27 00:17:53;;;;;;;;;;;;;;;;;;5038369;28;20004;-78
2022/06/27 00:20:20;;;;;;;;;;;;;;;;;;5038154;28;19984;-79
2022/06/27 00:22:47;;;;;;;;;;;;;;;;;;5037479;28;19929;-79
2022/06/27 00:25:13;;;;;;;;;;;;;;;;;;5039624;28;19925;-79
2022/06/27 00:27:40;;;;;;;;;;;;;;;;;;5041027;28;20015;-79
2022/06/27 00:30:07;;;;;;;;;;;;;;;;;;5040649;28;20287;-80
2022/06/27 00:32:35;;;;;;;;;;;;;;;;;;5038623;28;20292;-80
2022/06/27 00:35:01;;;;;;;;;;;;;;;;;;5038365;28;20007;-80
2022/06/27 00:37:27;;;;;;;;;;;;;;;;;;5038035;28;20004;-80
2022/06/27 00:39:54;;;;;;;;;;;;;;;;;;5038293;28;19948;-79
2022/06/27 00:42:20;;;;;;;;;;;;;;;;;;5038141;28;20008;-80
2022/06/27 00:44:47;;;;;;;;;;;;;;;;;;5041283;28;19971;-80
2022/06/27 00:47:14;;;;;;;;;;;;;;;;;;5038859;28;19964;-80
2022/06/27 00:49:42;;;;;;;;;;;;;;;;;;5040741;28;19929;-78
2022/06/27 00:52:09;;;;;;;;;;;;;;;;;;5044953;28;19991;-79
2022/06/27 00:54:36;;;;;;;;;;;;;;;;;;5041599;28;19925;-77
2022/06/27 00:57:03;;;;;;;;;;;;;;;;;;5039157;28;20028;-81
2022/06/27 00:59:29;;;;;;;;;;;;;;;;;;5028904;28;19972;-80
2022/06/27 01:01:56;;;;;;;;;;;;;;;;;;5017756;28;19948;-80
2022/06/27 01:04:24;;;;;;;;;;;;;;;;;;5016822;28;21341;-80
2022/06/27 01:06:52;;;;;;;;;;;;;;;;;;5017709;28;19930;-78
2022/06/27 01:09:19;;;;;;;;;;;;;;;;;;5017506;28;20036;-78
2022/06/27 01:11:45;;;;;;;;;;;;;;;;;;5017270;28;20016;-79
2022/06/27 01:14:12;;;;;;;;;;;;;;;;;;5017944;28;20476;-78
2022/06/27 01:16:39;;;;;;;;;;;;;;;;;;5017401;28;20024;-78
2022/06/27 01:19:06;;;;;;;;;;;;;;;;;;5017001;28;19979;-79
2022/06/27 01:21:36;;;;;;;;;;;;;;;;;;5015734;28;20029;-80
2022/06/27 01:24:04;;;;;;;;;;;;;;;;;;5017088;28;19926;-80
2022/06/27 01:26:30;;;;;;;;;;;;;;;;;;5016259;28;19925;-79
2022/06/27 01:28:57;;;;;;;;;;;;;;;;;;5016378;28;20384;-80
2022/06/27 01:31:24;;;;;;;;;;;;;;;;;;5015245;28;19925;-77
2022/06/27 01:33:50;;;;;;;;;;;;;;;;;;5013690;28;19933;-78
2022/06/27 01:39:00;;;;;;;;;;;;;;;;;;5013794;28;19957;-77
2022/06/27 01:41:28;;;;;;;;;;;;;;;;;;5013861;28;19926;-77
2022/06/27 01:43:55;;;;;;;;;;;;;;;;;;5013508;28;19969;-76
2022/06/27 01:46:21;;;;;;;;;;;;;;;;;;5013912;28;19929;-77
2022/06/27 01:48:47;;;;;;;;;;;;;;;;;;5014051;28;19931;-78
2022/06/27 01:51:15;;;;;;;;;;;;;;;;;;5012962;28;19925;-77
2022/06/27 01:53:41;;;;;;;;;;;;;;;;;;5012722;28;19929;-76
2022/06/27 01:56:08;;;;;;;;;;;;;;;;;;5012914;28;19925;-76
2022/06/27 01:58:37;;;;;;;;;;;;;;;;;;5012769;28;19932;-76
2022/06/27 02:01:05;;;;;;;;;;;;;;;;;;5038143;28;20011;-75
2022/06/27 02:03:31;;;;;;;;;;;;;;;;;;5038973;28;20388;-75
2022/06/27 02:05:58;;;;;;;;;;;;;;;;;;5039415;28;19981;-74
2022/06/27 02:08:25;;;;;;;;;;;;;;;;;;5040690;28;19964;-76
2022/06/27 02:10:52;;;;;;;;;;;;;;;;;;5035729;28;20280;-78
2022/06/27 02:13:18;;;;;;;;;;;;;;;;;;5035855;28;20294;-77
2022/06/27 02:16:06;;;;;;;;;;;;;;;;;;5035253;28;20427;-77
2022/06/27 02:18:33;;;;;;;;;;;;;;;;;;5035587;28;19925;-77
2022/06/27 02:24:26;;;;;;;;;;;;;;;;;;5035415;28;19970;-77
2022/06/27 02:26:53;;;;;;;;;;;;;;;;;;5031949;28;19925;-77
2022/06/27 02:29:19;;;;;;;;;;;;;;;;;;5035243;28;19925;-81
2022/06/27 02:31:47;;;;;;;;;;;;;;;;;;5035052;28;19932;-78
2022/06/27 02:34:14;;;;;;;;;;;;;;;;;;5035389;28;19931;-77
2022/06/27 02:36:42;;;;;;;;;;;;;;;;;;5035033;28;19955;-77
2022/06/27 02:39:11;;;;;;;;;;;;;;;;;;5035053;28;19932;-77
2022/06/27 02:41:39;;;;;;;;;;;;;;;;;;5034729;28;19931;-77
2022/06/27 02:44:10;;;;;;;;;;;;;;;;;;5035001;28;19925;-77
2022/06/27 02:46:38;;;;;;;;;;;;;;;;;;5034869;28;20281;-78
2022/06/27 02:49:05;;;;;;;;;;;;;;;;;;5034752;28;19925;-78
2022/06/27 02:51:35;;;;;;;;;;;;;;;;;;5034496;28;19929;-78
2022/06/27 02:54:03;;;;;;;;;;;;;;;;;;5034932;28;19935;-78
2022/06/27 02:56:30;;;;;;;;;;;;;;;;;;5034729;28;19925;-78
2022/06/27 02:59:01;;;;;;;;;;;;;;;;;;5034704;28;20307;-77
2022/06/27 03:01:29;;;;;;;;;;;;;;;;;;5034268;28;19925;-77
2022/06/27 03:03:57;;;;;;;;;;;;;;;;;;5034937;28;19925;-78
2022/06/27 03:06:25;;;;;;;;;;;;;;;;;;5035224;28;19925;-78
2022/06/27 03:08:51;;;;;;;;;;;;;;;;;;5034979;28;20403;-78
2022/06/27 03:11:18;;;;;;;;;;;;;;;;;;5034920;28;20027;-77
2022/06/27 03:13:46;;;;;;;;;;;;;;;;;;5034813;28;20016;-77
2022/06/27 03:16:13;;;;;;;;;;;;;;;;;;5034235;28;19929;-77
2022/06/27 03:18:39;;;;;;;;;;;;;;;;;;5033960;28;19933;-77
2022/06/27 03:21:05;;;;;;;;;;;;;;;;;;5033686;28;19939;-77
2022/06/27 03:23:33;;;;;;;;;;;;;;;;;;5034352;28;19928;-76
2022/06/27 03:26:00;;;;;;;;;;;;;;;;;;5033840;28;19932;-78
2022/06/27 03:28:26;;;;;;;;;;;;;;;;;;5034305;28;20304;-78
2022/06/27 03:30:52;;;;;;;;;;;;;;;;;;5033784;28;19929;-77
2022/06/27 03:33:19;;;;;;;;;;;;;;;;;;5033793;28;20307;-78
2022/06/27 03:35:45;;;;;;;;;;;;;;;;;;5033862;28;20399;-77
2022/06/27 03:38:12;;;;;;;;;;;;;;;;;;5034103;28;19925;-77
2022/06/27 03:40:40;;;;;;;;;;;;;;;;;;5033564;28;20367;-77
2022/06/27 03:43:07;;;;;;;;;;;;;;;;;;5033959;28;19925;-77
2022/06/27 03:45:33;;;;;;;;;;;;;;;;;;5033744;28;19925;-78
2022/06/27 03:48:01;;;;;;;;;;;;;;;;;;5033545;28;19925;-77
2022/06/27 03:50:26;;;;;;;;;;;;;;;;;;5033575;28;19925;-78
2022/06/27 03:52:53;;;;;;;;;;;;;;;;;;5033753;28;20299;-78
2022/06/27 03:55:20;;;;;;;;;;;;;;;;;;5033393;28;19931;-77
2022/06/27 03:57:49;;;;;;;;;;;;;;;;;;5033298;28;20308;-77
2022/06/27 04:00:16;;;;;;;;;;;;;;;;;;5032872;28;19925;-78
2022/06/27 04:02:42;;;;;;;;;;;;;;;;;;5033401;28;20013;-78
2022/06/27 04:05:09;;;;;;;;;;;;;;;;;;5033691;28;19948;-77
2022/06/27 04:07:35;;;;;;;;;;;;;;;;;;5033502;28;19932;-77
2022/06/27 04:10:02;;;;;;;;;;;;;;;;;;5033157;28;20380;-77
2022/06/27 04:12:28;;;;;;;;;;;;;;;;;;5033047;28;20380;-78
2022/06/27 04:14:56;;;;;;;;;;;;;;;;;;5033586;28;19931;-77
2022/06/27 04:17:22;;;;;;;;;;;;;;;;;;5033582;28;19929;-78
2022/06/27 04:19:49;;;;;;;;;;;;;;;;;;5033036;28;19964;-77
2022/06/27 04:22:15;;;;;;;;;;;;;;;;;;5033018;28;20041;-77
2022/06/27 04:24:42;;;;;;;;;;;;;;;;;;5033282;28;19972;-78
2022/06/27 04:27:08;;;;;;;;;;;;;;;;;;5064662;22;19932;-66
2022/06/27 04:29:35;;;;;;;;;;;;;;;;;;5031870;28;20106;-67
2022/06/27 04:32:04;;;;;;;;;;;;;;;;;;5032909;28;20432;-67
2022/06/27 04:34:30;;;;;;;;;;;;;;;;;;5033119;28;19979;-67
2022/06/27 04:36:57;;;;;;;;;;;;;;;;;;5032949;28;19929;-66
2022/06/27 04:39:23;;;;;;;;;;;;;;;;;;5032652;28;19929;-67
2022/06/27 04:41:50;;;;;;;;;;;;;;;;;;5032667;28;19933;-67
2022/06/27 04:44:18;;;;;;;;;;;;;;;;;;5032658;28;19983;-67
2022/06/27 04:46:47;;;;;;;;;;;;;;;;;;5033078;28;19947;-67
2022/06/27 04:49:15;;;;;;;;;;;;;;;;;;5032658;28;19925;-66
2022/06/27 04:51:43;;;;;;;;;;;;;;;;;;5032376;28;19929;-66
2022/06/27 04:54:10;;;;;;;;;;;;;;;;;;5032356;28;19925;-66
2022/06/27 04:56:39;;;;;;;;;;;;;;;;;;5032481;28;19933;-65
2022/06/27 04:59:06;;;;;;;;;;;;;;;;;;5032217;28;19936;-65
2022/06/27 05:01:32;;;;;;;;;;;;;;;;;;5032762;28;19979;-66
2022/06/27 05:03:59;;;;;;;;;;;;;;;;;;5032447;28;19925;-66
2022/06/27 05:06:27;;;;;;;;;;;;;;;;;;5032464;28;20344;-66
2022/06/27 05:08:54;;;;;;;;;;;;;;;;;;5032958;28;19929;-67
2022/06/27 05:11:20;;;;;;;;;;;;;;;;;;5031693;28;19940;-65
2022/06/27 05:13:47;;;;;;;;;;;;;;;;;;5032176;28;19959;-67
2022/06/27 05:16:14;;;;;;;;;;;;;;;;;;5032380;28;19979;-66
2022/06/27 05:18:41;;;;;;;;;;;;;;;;;;5033384;28;19960;-66
2022/06/27 05:21:08;;;;;;;;;;;;;;;;;;5031648;28;19925;-66
2022/06/27 05:23:37;;;;;;;;;;;;;;;;;;5031725;28;19932;-66
2022/06/27 05:26:04;;;;;;;;;;;;;;;;;;5032012;28;19929;-66
2022/06/27 05:28:30;;;;;;;;;;;;;;;;;;5032415;28;19929;-67
2022/06/27 05:30:57;;;;;;;;;;;;;;;;;;5031651;28;19932;-66
2022/06/27 05:33:24;;;;;;;;;;;;;;;;;;5031699;28;19925;-67
2022/06/27 05:35:50;;;;;;;;;;;;;;;;;;5031816;28;19982;-67
2022/06/27 05:38:17;;;;;;;;;;;;;;;;;;5031571;28;20382;-66
2022/06/27 05:40:45;;;;;;;;;;;;;;;;;;5031955;28;19925;-67
2022/06/27 05:43:13;;;;;;;;;;;;;;;;;;5036178;28;19931;-67
2022/06/27 05:45:40;;;;;;;;;;;;;;;;;;5035914;28;20021;-66
2022/06/27 05:48:07;;;;;;;;;;;;;;;;;;5035850;28;19926;-67
2022/06/27 05:50:34;;;;;;;;;;;;;;;;;;5036003;28;19925;-67
2022/06/27 05:53:01;;;;;;;;;;;;;;;;;;5036121;28;19975;-66
2022/06/27 05:55:28;;;;;;;;;;;;;;;;;;5036035;28;19925;-67
2022/06/27 05:57:57;;;;;;;;;;;;;;;;;;5035951;28;19925;-67
2022/06/27 06:00:24;;;;;;;;;;;;;;;;;;5035453;28;20404;-68
2022/06/27 06:02:51;;;;;;;;;;;;;;;;;;5035722;28;19963;-67
2022/06/27 06:05:18;;;;;;;;;;;;;;;;;;5035752;28;19925;-66
2022/06/27 06:07:45;;;;;;;;;;;;;;;;;;5035795;28;20334;-66
2022/06/27 06:10:12;;;;;;;;;;;;;;;;;;5035359;28;19925;-67
2022/06/27 06:12:38;;;;;;;;;;;;;;;;;;5035791;28;19932;-66
2022/06/27 06:15:08;;;;;;;;;;;;;;;;;;5035868;28;19971;-66
2022/06/27 06:17:36;;;;;;;;;;;;;;;;;;5035616;28;19979;-66
2022/06/27 06:20:04;;;;;;;;;;;;;;;;;;5035052;28;20432;-66
2022/06/27 06:22:30;;;;;;;;;;;;;;;;;;5035386;28;20287;-66
2022/06/27 06:24:57;;;;;;;;;;;;;;;;;;5035181;28;19925;-68
2022/06/27 06:27:23;;;;;;;;;;;;;;;;;;5035910;28;20374;-68
2022/06/27 06:29:51;;;;;;;;;;;;;;;;;;5035250;28;19926;-66
2022/06/27 06:32:19;;;;;;;;;;;;;;;;;;5035419;28;20312;-67
2022/06/27 06:34:45;;;;;;;;;;;;;;;;;;5035049;28;20371;-67
2022/06/27 06:37:12;;;;;;;;;;;;;;;;;;5035324;28;19925;-66
2022/06/27 06:39:39;;;;;;;;;;;;;;;;;;5034836;28;19979;-69
2022/06/27 06:42:06;;;;;;;;;;;;;;;;;;5034916;28;20458;-67
2022/06/27 06:44:33;;;;;;;;;;;;;;;;;;5034866;28;19925;-67
2022/06/27 06:46:59;;;;;;;;;;;;;;;;;;5035206;28;19944;-69
2022/06/27 06:49:27;;;;;;;;;;;;;;;;;;5034541;28;19925;-66
2022/06/27 06:51:54;;;;;;;;;;;;;;;;;;5034389;28;20440;-67
2022/06/27 06:54:22;;;;;;;;;;;;;;;;;;5034269;28;19929;-66
2022/06/27 06:56:49;;;;;;;;;;;;;;;;;;5035042;28;19925;-67
2022/06/27 06:59:16;;;;;;;;;;;;;;;;;;5034622;28;20386;-66
2022/06/27 07:01:43;;;;;;;;;;;;;;;;;;5034420;28;19929;-68
2022/06/27 07:04:11;;;;;;;;;;;;;;;;;;5034741;28;20290;-68
2022/06/27 07:06:40;;;;;;;;;;;;;;;;;;5034790;28;20432;-67
2022/06/27 07:09:06;;;;;;;;;;;;;;;;;;5034218;28;19932;-67
2022/06/27 07:11:37;;;;;;;;;;;;;;;;;;5037155;28;19932;-67
2022/06/27 07:14:04;;;;;;;;;;;;;;;;;;5032790;28;19947;-67
2022/06/27 07:16:31;;;;;;;;;;;;;;;;;;5032622;28;19936;-67
2022/06/27 07:19:00;;;;;;;;;;;;;;;;;;5032424;28;19971;-67
2022/06/27 07:21:30;;;;;;;;;;;;;;;;;;5032223;28;20023;-67
2022/06/27 07:24:00;;;;;;;;;;;;;;;;;;5032290;28;19925;-67
2022/06/27 07:26:27;;;;;;;;;;;;;;;;;;5032129;28;19925;-68
2022/06/27 07:28:53;;;;;;;;;;;;;;;;;;5031964;28;19925;-66
2022/06/27 07:31:20;;;;;;;;;;;;;;;;;;5031916;28;19925;-67
2022/06/27 07:33:48;;;;;;;;;;;;;;;;;;5032379;28;20321;-67
2022/06/27 07:36:17;;;;;;;;;;;;;;;;;;5032488;28;20420;-67
2022/06/27 07:38:46;;;;;;;;;;;;;;;;;;5032135;28;19986;-66
2022/06/27 07:41:15;;;;;;;;;;;;;;;;;;5032197;28;19984;-67
2022/06/27 07:43:43;;;;;;;;;;;;;;;;;;5032200;28;19925;-66
2022/06/27 07:46:10;;;;;;;;;;;;;;;;;;5031944;28;19925;-67
2022/06/27 07:48:37;;;;;;;;;;;;;;;;;;5032093;28;19932;-67
2022/06/27 07:51:04;;;;;;;;;;;;;;;;;;5031253;28;19925;-67
2022/06/27 07:53:31;;;;;;;;;;;;;;;;;;5034306;28;19947;-66
2022/06/27 07:55:58;;;;;;;;;;;;;;;;;;5035008;28;19932;-67
2022/06/27 07:58:33;;;;;;;;;;;;;;;;;;5035665;28;19925;-67
2022/06/27 08:01:00;;;;;;;;;;;;;;;;;;5031923;28;19929;-67
2022/06/27 08:03:44;;;;;;;;;;;;;;;;;;5031467;28;19925;-67
2022/06/27 08:06:11;;;;;;;;;;;;;;;;;;5031826;28;19970;-67
2022/06/27 08:08:39;;;;;;;;;;;;;;;;;;5031441;28;20407;-67
2022/06/27 08:11:07;;;;;;;;;;;;;;;;;;5031015;28;19925;-66
2022/06/27 08:13:35;;;;;;;;;;;;;;;;;;5030738;28;20008;-67
2022/06/27 08:18:31;;;;;;;;;;;;;;;;;;5049028;22;19925;-68
2022/06/27 08:20:58;;;;;;;;;;;;;;;;;;5033478;28;19979;-67
2022/06/27 08:23:24;;;;;;;;;;;;;;;;;;5031529;28;20159;-68
2022/06/27 08:25:51;;;;;;;;;;;;;;;;;;5032104;28;20290;-68
2022/06/27 08:28:20;;;;;;;;;;;;;;;;;;5031298;28;19925;-70
2022/06/27 08:30:48;;;;;;;;;;;;;;;;;;5031558;28;19925;-69
2022/06/27 08:33:14;;;;;;;;;;;;;;;;;;5031064;28;20019;-67
2022/06/27 08:35:44;;;;;;;;;;;;;;;;;;5030931;28;19968;-73
2022/06/27 08:38:10;;;;;;;;;;;;;;;;;;5030638;28;19925;-70
2022/06/27 08:40:37;;;;;;;;;;;;;;;;;;5030694;28;19925;-71
2022/06/27 08:43:04;;;;;;;;;;;;;;;;;;5030574;28;20128;-70
2022/06/27 08:45:32;;;;;;;;;;;;;;;;;;5030606;28;19926;-70
2022/06/27 08:48:06;;;;;;;;;;;;;;;;;;5030620;28;19925;-69
2022/06/27 08:50:34;;;;;;;;;;;;;;;;;;5030876;28;19925;-69
2022/06/27 08:53:01;;;;;;;;;;;;;;;;;;5030746;28;19925;-69
2022/06/27 08:55:27;;;;;;;;;;;;;;;;;;5030704;28;19925;-70
2022/06/27 08:57:54;;;;;;;;;;;;;;;;;;5030741;28;19928;-69
2022/06/27 09:00:22;;;;;;;;;;;;;;;;;;5030011;28;19928;-69
2022/06/27 09:02:49;;;;;;;;;;;;;;;;;;5030880;28;19952;-69
2022/06/27 09:05:23;;;;;;;;;;;;;;;;;;5030432;28;19952;-68
2022/06/27 09:07:52;;;;;;;;;;;;;;;;;;5030730;28;20242;-69
2022/06/27 09:10:29;;;;;;;;;;;;;;;;;;5030159;28;19979;-70
2022/06/27 09:12:57;;;;;;;;;;;;;;;;;;5030165;28;19935;-69
2022/06/27 09:15:25;;;;;;;;;;;;;;;;;;5029763;28;19932;-69
2022/06/27 09:18:04;;;;;;;;;;;;;;;;;;5030286;28;19975;-69
2022/06/27 09:20:49;;;;;;;;;;;;;;;;;;5030298;28;20317;-69
2022/06/27 09:23:29;;;;;;;;;;;;;;;;;;5030318;28;19983;-69
2022/06/27 09:26:00;;;;;;;;;;;;;;;;;;5030446;28;19929;-70
2022/06/27 09:28:50;;;;;;;;;;;;;;;;;;5030436;28;19948;-69
2022/06/27 09:31:30;;;;;;;;;;;;;;;;;;5030258;28;19932;-69
2022/06/27 09:34:00;;;;;;;;;;;;;;;;;;5030170;28;19976;-69
2022/06/27 09:36:30;;;;;;;;;;;;;;;;;;5030339;28;19925;-68
2022/06/27 09:38:57;;;;;;;;;;;;;;;;;;5030026;28;19971;-69
2022/06/27 09:41:26;;;;;;;;;;;;;;;;;;5029976;28;19925;-69
2022/06/27 09:43:54;;;;;;;;;;;;;;;;;;5030461;28;19999;-69
2022/06/27 09:46:24;;;;;;;;;;;;;;;;;;5030162;28;20373;-69
2022/06/27 09:48:53;;;;;;;;;;;;;;;;;;5030200;28;19932;-69
2022/06/27 09:51:21;;;;;;;;;;;;;;;;;;5029766;28;20421;-69
2022/06/27 09:53:50;;;;;;;;;;;;;;;;;;5029796;28;19925;-68
2022/06/27 09:56:18;;;;;;;;;;;;;;;;;;5030081;28;19948;-68
2022/06/27 09:58:45;;;;;;;;;;;;;;;;;;5029745;28;19925;-69
2022/06/27 10:01:12;;;;;;;;;;;;;;;;;;5029819;28;19979;-69
2022/06/27 10:03:40;;;;;;;;;;;;;;;;;;5030303;28;20019;-69
2022/06/27 10:06:07;;;;;;;;;;;;;;;;;;5029422;28;19932;-69
2022/06/27 10:08:35;;;;;;;;;;;;;;;;;;5029964;28;20025;-71
2022/06/27 10:11:11;;;;;;;;;;;;;;;;;;5029843;28;19952;-71
2022/06/27 10:13:42;;;;;;;;;;;;;;;;;;5029558;28;20464;-69
2022/06/27 10:16:10;;;;;;;;;;;;;;;;;;5029727;28;19925;-69
2022/06/27 10:18:52;;;;;;;;;;;;;;;;;;5030236;28;19933;-68
2022/06/27 10:21:25;;;;;;;;;;;;;;;;;;5029380;28;19933;-70
2022/06/27 10:24:06;;;;;;;;;;;;;;;;;;5030583;28;19925;-67
2022/06/27 10:26:41;;;;;;;;;;;;;;;;;;5032130;22;19925;-70
2022/06/27 10:29:26;;;;;;;;;;;;;;;;;;5013106;28;20353;-63
2022/06/27 10:31:52;;;;;;;;;;;;;;;;;;5021107;28;19925;-63
2022/06/27 10:34:19;;;;;;;;;;;;;;;;;;5033606;28;19932;-61
2022/06/27 10:36:46;;;;;;;;;;;;;;;;;;5033342;28;19926;-69
2022/06/27 10:39:19;;;;;;;;;;;;;;;;;;5033384;28;19929;-71
2022/06/27 10:41:47;;;;;;;;;;;;;;;;;;5033069;28;19988;-69
2022/06/27 10:44:33;;;;;;;;;;;;;;;;;;5033520;28;19925;-69
2022/06/27 10:47:01;;;;;;;;;;;;;;;;;;5033796;28;19932;-65
2022/06/27 10:49:28;;;;;;;;;;;;;;;;;;5033172;28;20364;-69
2022/06/27 10:52:13;;;;;;;;;;;;;;;;;;5033150;28;19925;-70
2022/06/27 10:54:42;;;;;;;;;;;;;;;;;;5033416;28;19951;-68
2022/06/27 10:57:11;;;;;;;;;;;;;;;;;;5033034;28;19932;-70
2022/06/27 11:00:00;;;;;;;;;;;;;;;;;;5033503;28;19926;-70
2022/06/27 11:02:27;;;;;;;;;;;;;;;;;;5032905;28;19925;-69
2022/06/27 11:04:55;;;;;;;;;;;;;;;;;;5033207;28;19933;-69
2022/06/27 11:07:21;;;;;;;;;;;;;;;;;;5032821;28;20405;-69
2022/06/27 11:09:48;;;;;;;;;;;;;;;;;;5032368;28;19968;-69
2022/06/27 11:12:18;;;;;;;;;;;;;;;;;;5031808;28;19952;-70
2022/06/27 11:14:45;;;;;;;;;;;;;;;;;;5029933;28;19983;-69
2022/06/27 11:17:26;;;;;;;;;;;;;;;;;;5032837;28;19929;-68
2022/06/27 11:20:07;;;;;;;;;;;;;;;;;;5031217;28;19925;-68
2022/06/27 11:22:34;;;;;;;;;;;;;;;;;;5031131;28;19925;-69
2022/06/27 11:25:01;;;;;;;;;;;;;;;;;;5032722;28;19979;-70
2022/06/27 11:27:42;;;;;;;;;;;;;;;;;;5032619;28;19932;-69
2022/06/27 11:32:56;;;;;;;;;;;;;;;;;;5033084;28;19932;-68
2022/06/27 11:35:22;;;;;;;;;;;;;;;;;;5032674;28;19925;-68
2022/06/27 11:37:49;;;;;;;;;;;;;;;;;;5032754;28;19932;-69
2022/06/27 11:40:15;;;;;;;;;;;;;;;;;;5031404;28;19925;-68
2022/06/27 11:42:42;;;;;;;;;;;;;;;;;;5032149;28;19932;-68
2022/06/27 11:45:10;;;;;;;;;;;;;;;;;;5032203;28;19932;-69
2022/06/27 11:47:39;;;;;;;;;;;;;;;;;;5032337;28;19925;-70
2022/06/27 11:50:07;;;;;;;;;;;;;;;;;;5031931;28;20026;-69
2022/06/27 11:52:37;;;;;;;;;;;;;;;;;;5031882;28;19924;-68
2022/06/27 11:55:08;;;;;;;;;;;;;;;;;;5032144;28;20385;-69
2022/06/27 11:57:35;;;;;;;;;;;;;;;;;;5032246;28;20428;-69
2022/06/27 12:00:04;;;;;;;;;;;;;;;;;;5032479;28;19978;-70
2022/06/27 12:02:32;;;;;;;;;;;;;;;;;;5032455;28;19932;-69
2022/06/27 12:05:08;;;;;;;;;;;;;;;;;;5032521;28;20360;-70
2022/06/27 12:07:49;;;;;;;;;;;;;;;;;;5032423;28;19929;-69
2022/06/27 12:10:16;;;;;;;;;;;;;;;;;;5031835;28;19975;-70
2022/06/27 12:12:44;;;;;;;;;;;;;;;;;;5032361;28;19925;-69
2022/06/27 12:15:20;;;;;;;;;;;;;;;;;;5031715;28;19929;-69
2022/06/27 12:17:46;;;;;;;;;;;;;;;;;;5031640;28;19964;-70
2022/06/27 12:20:14;;;;;;;;;;;;;;;;;;5032118;28;19925;-69
2022/06/27 12:22:41;;;;;;;;;;;;;;;;;;5031290;28;19936;-68
2022/06/27 12:25:08;;;;;;;;;;;;;;;;;;5032080;28;19925;-68
2022/06/27 12:27:34;;;;;;;;;;;;;;;;;;5031356;28;20293;-69
2022/06/27 12:30:01;;;;;;;;;;;;;;;;;;5031568;28;20357;-69
2022/06/27 12:32:28;;;;;;;;;;;;;;;;;;5031032;28;20024;-69
2022/06/27 12:34:55;;;;;;;;;;;;;;;;;;5031196;28;19925;-69
2022/06/27 12:37:23;;;;;;;;;;;;;;;;;;5031535;28;19925;-70
2022/06/27 12:39:49;;;;;;;;;;;;;;;;;;5031802;28;19925;-69
2022/06/27 12:42:16;;;;;;;;;;;;;;;;;;5031798;28;19925;-69
2022/06/27 12:44:42;;;;;;;;;;;;;;;;;;5030991;28;19929;-69
2022/06/27 12:47:09;;;;;;;;;;;;;;;;;;5031376;28;19948;-69
2022/06/27 12:49:36;;;;;;;;;;;;;;;;;;5031391;28;20405;-69
2022/06/27 12:52:02;;;;;;;;;;;;;;;;;;5030415;28;20489;-69
2022/06/27 12:54:31;;;;;;;;;;;;;;;;;;5031445;28;20294;-69
2022/06/27 12:56:57;;;;;;;;;;;;;;;;;;5031805;28;20024;-69
2022/06/27 12:59:24;;;;;;;;;;;;;;;;;;5031222;28;19929;-70
2022/06/27 13:01:52;;;;;;;;;;;;;;;;;;5031106;28;19925;-70
2022/06/27 13:04:19;;;;;;;;;;;;;;;;;;5031489;28;20366;-69
2022/06/27 13:06:45;;;;;;;;;;;;;;;;;;5032117;28;19931;-68
2022/06/27 13:09:12;;;;;;;;;;;;;;;;;;5030999;28;19976;-66
2022/06/27 13:11:40;;;;;;;;;;;;;;;;;;5030730;28;19971;-69
2022/06/27 13:14:07;;;;;;;;;;;;;;;;;;5030771;28;19954;-70
2022/06/27 13:16:34;;;;;;;;;;;;;;;;;;5031195;28;19933;-70
2022/06/27 13:19:00;;;;;;;;;;;;;;;;;;5031511;28;19932;-69
2022/06/27 13:21:27;;;;;;;;;;;;;;;;;;5031366;28;19925;-69
2022/06/27 13:23:54;;;;;;;;;;;;;;;;;;5030800;28;19926;-70
2022/06/27 13:26:20;;;;;;;;;;;;;;;;;;5030641;28;19925;-69
2022/06/27 13:28:48;;;;;;;;;;;;;;;;;;5030797;28;20473;-69
2022/06/27 13:31:15;;;;;;;;;;;;;;;;;;5030946;28;19925;-70
2022/06/27 13:33:41;;;;;;;;;;;;;;;;;;5031113;28;19929;-70
2022/06/27 13:36:08;;;;;;;;;;;;;;;;;;5030804;28;19925;-69
2022/06/27 13:38:35;;;;;;;;;;;;;;;;;;5031354;28;19934;-70
2022/06/27 13:41:01;;;;;;;;;;;;;;;;;;5030655;28;19932;-69
2022/06/27 13:43:28;;;;;;;;;;;;;;;;;;5030531;28;20379;-69
2022/06/27 13:45:56;;;;;;;;;;;;;;;;;;5030693;28;19979;-68
2022/06/27 13:48:22;;;;;;;;;;;;;;;;;;5030425;28;19929;-69
2022/06/27 13:50:49;;;;;;;;;;;;;;;;;;5031009;28;19941;-69
2022/06/27 13:53:16;;;;;;;;;;;;;;;;;;5030150;28;19948;-69
2022/06/27 13:55:42;;;;;;;;;;;;;;;;;;5030742;28;19925;-68
2022/06/27 13:58:09;;;;;;;;;;;;;;;;;;5030542;28;19925;-68
2022/06/27 14:00:36;;;;;;;;;;;;;;;;;;5030959;28;19925;-69
2022/06/27 14:03:05;;;;;;;;;;;;;;;;;;5033855;28;19936;-70
2022/06/27 14:05:32;;;;;;;;;;;;;;;;;;5035176;28;20362;-70
2022/06/27 14:07:58;;;;;;;;;;;;;;;;;;5034868;28;19932;-69
2022/06/27 14:10:27;;;;;;;;;;;;;;;;;;5034228;28;19926;-70
2022/06/27 14:12:54;;;;;;;;;;;;;;;;;;5035064;28;19925;-70
2022/06/27 14:15:20;;;;;;;;;;;;;;;;;;5035788;28;20308;-70
2022/06/27 14:17:48;;;;;;;;;;;;;;;;;;5035146;28;19925;-69
2022/06/27 14:20:16;;;;;;;;;;;;;;;;;;5034634;28;20381;-69
2022/06/27 14:22:43;;;;;;;;;;;;;;;;;;5035469;28;19940;-69
2022/06/27 14:25:10;;;;;;;;;;;;;;;;;;5034863;28;19925;-68
2022/06/27 14:27:38;;;;;;;;;;;;;;;;;;5035127;28;20397;-71
2022/06/27 14:30:05;;;;;;;;;;;;;;;;;;5034764;28;19931;-70
2022/06/27 14:32:32;;;;;;;;;;;;;;;;;;5034804;28;20385;-69
2022/06/27 14:34:59;;;;;;;;;;;;;;;;;;5034883;28;19932;-70
2022/06/27 14:37:27;;;;;;;;;;;;;;;;;;5034932;28;19961;-69
2022/06/27 14:39:53;;;;;;;;;;;;;;;;;;5035595;28;20397;-69
2022/06/27 14:42:21;;;;;;;;;;;;;;;;;;5033725;28;19952;-69
2022/06/27 14:44:48;;;;;;;;;;;;;;;;;;5033745;28;19924;-70
2022/06/27 14:47:14;;;;;;;;;;;;;;;;;;5033974;28;19925;-71
2022/06/27 14:49:41;;;;;;;;;;;;;;;;;;5033700;28;19925;-70
2022/06/27 14:52:07;;;;;;;;;;;;;;;;;;5034024;28;19932;-70
2022/06/27 14:54:36;;;;;;;;;;;;;;;;;;5033906;28;19925;-69
2022/06/27 14:57:03;;;;;;;;;;;;;;;;;;5033935;28;19983;-69
2022/06/27 14:59:31;;;;;;;;;;;;;;;;;;5033350;28;19925;-69
2022/06/27 15:01:57;;;;;;;;;;;;;;;;;;5034069;28;19929;-69
2022/06/27 15:04:24;;;;;;;;;;;;;;;;;;5033528;28;19925;-69
2022/06/27 15:06:51;;;;;;;;;;;;;;;;;;5033745;28;19930;-69
2022/06/27 15:09:17;;;;;;;;;;;;;;;;;;5032920;28;19933;-69
2022/06/27 15:11:48;;;;;;;;;;;;;;;;;;5033407;28;19933;-69
2022/06/27 15:14:16;;;;;;;;;;;;;;;;;;5033224;28;19925;-70
2022/06/27 15:16:46;;;;;;;;;;;;;;;;;;5034089;28;19975;-70
2022/06/27 15:19:13;;;;;;;;;;;;;;;;;;5034545;28;19929;-70
2022/06/27 15:21:40;;;;;;;;;;;;;;;;;;5033862;28;19925;-69
2022/06/27 15:24:08;;;;;;;;;;;;;;;;;;5034173;28;20436;-70
2022/06/27 15:26:34;;;;;;;;;;;;;;;;;;5033490;28;19972;-70
2022/06/27 15:29:02;;;;;;;;;;;;;;;;;;5033060;28;19932;-70
2022/06/27 15:31:29;;;;;;;;;;;;;;;;;;5032932;28;19925;-71
2022/06/27 15:33:56;;;;;;;;;;;;;;;;;;5034225;28;19932;-69
2022/06/27 15:36:23;;;;;;;;;;;;;;;;;;5033382;28;20023;-70
2022/06/27 15:38:50;;;;;;;;;;;;;;;;;;5033440;28;19925;-69
2022/06/27 15:41:16;;;;;;;;;;;;;;;;;;5033112;28;20459;-70
2022/06/27 15:43:43;;;;;;;;;;;;;;;;;;5033296;28;19936;-66
2022/06/27 15:46:11;;;;;;;;;;;;;;;;;;5033058;28;19925;-69
2022/06/27 15:48:38;;;;;;;;;;;;;;;;;;5033471;28;19929;-70
2022/06/27 15:51:05;;;;;;;;;;;;;;;;;;5032367;28;19929;-70
2022/06/27 15:53:31;;;;;;;;;;;;;;;;;;5033228;28;19947;-69
2022/06/27 15:55:58;;;;;;;;;;;;;;;;;;5032810;28;19979;-71
2022/06/27 15:58:24;;;;;;;;;;;;;;;;;;5034305;28;19932;-70
2022/06/27 16:00:53;;;;;;;;;;;;;;;;;;5049200;23;19925;-78
2022/06/27 16:03:22;;;;;;;;;;;;;;;;;;5033749;28;20390;-78
2022/06/27 16:05:49;;;;;;;;;;;;;;;;;;5036816;28;20007;-79
2022/06/27 16:08:15;;;;;;;;;;;;;;;;;;5035717;28;19947;-77
2022/06/27 16:10:42;;;;;;;;;;;;;;;;;;5036924;28;20390;-80
2022/06/27 16:13:08;;;;;;;;;;;;;;;;;;5035876;28;19925;-78
2022/06/27 16:15:35;;;;;;;;;;;;;;;;;;5034609;28;20016;-77
2022/06/27 16:18:01;;;;;;;;;;;;;;;;;;5035940;28;19972;-77
2022/06/27 16:20:29;;;;;;;;;;;;;;;;;;5035057;28;19960;-78
2022/06/27 16:22:55;;;;;;;;;;;;;;;;;;5037979;28;20413;-78
2022/06/27 16:25:22;;;;;;;;;;;;;;;;;;5038539;28;19960;-80
2022/06/27 16:27:48;;;;;;;;;;;;;;;;;;5035949;28;19936;-78
2022/06/27 16:31:39;;;;;;;;;;;;;;;;;;5038440;28;20024;-78
2022/06/27 16:33:01;;;;;;;;;;;;;;;;;;5038870;28;19948;-77
2022/06/27 16:35:29;;;;;;;;;;;;;;;;;;5036819;28;19925;-77
2022/06/27 16:37:56;;;;;;;;;;;;;;;;;;5036927;28;20028;-78
2022/06/27 16:40:22;;;;;;;;;;;;;;;;;;5037307;28;19991;-78
2022/06/27 16:45:33;;;;;;;;;;;;;;;;;;5036525;28;19932;-78
2022/06/27 16:48:00;;;;;;;;;;;;;;;;;;5037349;28;19956;-78
2022/06/27 16:50:26;;;;;;;;;;;;;;;;;;5037074;28;19932;-77
2022/06/27 16:52:54;;;;;;;;;;;;;;;;;;5036645;28;19975;-78
2022/06/27 16:55:22;;;;;;;;;;;;;;;;;;5039011;28;19925;-78
2022/06/27 16:57:49;;;;;;;;;;;;;;;;;;5036207;28;19933;-77
2022/06/27 17:00:16;;;;;;;;;;;;;;;;;;5048655;28;19924;-77
2022/06/27 17:02:42;;;;;;;;;;;;;;;;;;5055838;28;19947;-77
2022/06/27 17:05:11;;;;;;;;;;;;;;;;;;5055455;28;19932;-77